createdAt,value
2023-04-08T00:00:54.231Z,8.54
2023-04-08T00:03:22.397Z,8.51
2023-04-08T00:05:50.464Z,8.57
2023-04-08T00:08:18.392Z,8.53
2023-04-08T00:10:46.292Z,8.58
2023-04-08T00:13:14.948Z,8.58
2023-04-08T00:15:42.992Z,8.63
2023-04-08T00:18:12.461Z,8.58
2023-04-08T00:20:40.528Z,8.44
2023-04-08T00:23:08.463Z,8.43
2023-04-08T00:25:36.440Z,8.54
2023-04-08T00:28:04.356Z,8.54
2023-04-08T00:30:32.303Z,8.53
2023-04-08T00:33:00.339Z,8.30
2023-04-08T00:35:30.198Z,8.46
2023-04-08T00:37:58.153Z,8.52
2023-04-08T00:40:26.069Z,8.45
2023-04-08T00:42:53.977Z,8.42
2023-04-08T00:45:22.044Z,8.38
2023-04-08T00:47:52.862Z,8.21
2023-04-08T00:50:21.404Z,8.40
2023-04-08T00:52:50.743Z,8.51
2023-04-08T00:55:18.688Z,8.36
2023-04-08T00:57:46.806Z,8.41
2023-04-08T01:00:16.105Z,8.29
2023-04-08T01:02:47.295Z,8.28
2023-04-08T01:05:19.331Z,8.35
2023-04-08T01:07:50.500Z,8.28
2023-04-08T01:10:22.440Z,8.32
2023-04-08T01:12:53.686Z,8.25
2023-04-08T01:15:22.249Z,8.35
2023-04-08T01:17:52.116Z,8.35
2023-04-08T01:20:20.442Z,8.36
2023-04-08T01:23:04.752Z,8.31
2023-04-08T01:25:34.290Z,8.27
2023-04-08T01:28:06.205Z,8.31
2023-04-08T01:30:35.802Z,8.32
2023-04-08T01:33:04.139Z,8.29
2023-04-08T01:35:32.548Z,8.35
2023-04-08T01:38:01.343Z,8.32
2023-04-08T01:40:29.281Z,8.14
2023-04-08T01:42:58.256Z,8.14
2023-04-08T01:45:27.831Z,8.21
2023-04-08T01:47:56.700Z,8.22
2023-04-08T01:50:25.260Z,8.21
2023-04-08T01:52:53.830Z,8.27
2023-04-08T01:55:21.916Z,8.25
2023-04-08T01:57:52.145Z,8.24
2023-04-08T02:00:23.465Z,8.17
2023-04-08T02:02:53.234Z,8.16
2023-04-08T02:05:21.523Z,8.16
2023-04-08T02:07:49.642Z,8.10
2023-04-08T02:10:17.673Z,8.21
2023-04-08T02:12:46.080Z,8.16
2023-04-08T02:15:14.980Z,8.26
2023-04-08T02:17:47.309Z,8.26
2023-04-08T02:20:19.864Z,8.15
2023-04-08T02:22:51.029Z,8.16
2023-04-08T02:25:22.268Z,8.10
2023-04-08T02:27:50.787Z,7.98
2023-04-08T02:30:19.498Z,8.06
2023-04-08T02:32:48.648Z,8.13
2023-04-08T02:35:18.568Z,8.15
2023-04-08T02:37:47.962Z,8.13
2023-04-08T02:40:26.525Z,8.18
2023-04-08T02:42:54.585Z,8.20
2023-04-08T02:45:22.718Z,8.04
2023-04-08T02:47:50.640Z,8.10
2023-04-08T02:50:19.916Z,8.10
2023-04-08T02:52:47.819Z,8.01
2023-04-08T02:55:15.729Z,7.90
2023-04-08T02:57:44.188Z,8.01
2023-04-08T03:00:13.371Z,7.99
2023-04-08T03:02:41.483Z,7.91
2023-04-08T03:05:10.457Z,7.96
2023-04-08T03:07:40.037Z,7.92
2023-04-08T03:10:09.203Z,8.00
2023-04-08T03:12:37.103Z,7.96
2023-04-08T03:15:06.277Z,7.98
2023-04-08T03:17:34.794Z,7.97
2023-04-08T03:20:04.860Z,7.92
2023-04-08T03:22:32.972Z,7.88
2023-04-08T03:25:02.286Z,7.87
2023-04-08T03:27:30.170Z,7.86
2023-04-08T03:29:58.135Z,7.93
2023-04-08T03:32:26.385Z,7.97
2023-04-08T03:34:54.319Z,7.92
2023-04-08T03:37:22.205Z,7.82
2023-04-08T03:39:50.103Z,7.84
2023-04-08T03:42:19.439Z,7.88
2023-04-08T03:44:47.332Z,7.89
2023-04-08T03:47:15.383Z,7.89
2023-04-08T03:49:43.286Z,7.91
2023-04-08T03:52:11.180Z,7.89
2023-04-08T03:54:39.097Z,7.84
2023-04-08T03:57:07.048Z,7.89
2023-04-08T03:59:36.517Z,7.80
2023-04-08T04:02:04.501Z,7.76
2023-04-08T04:04:32.661Z,7.88
2023-04-08T04:07:00.760Z,7.80
2023-04-08T04:09:28.680Z,7.82
2023-04-08T04:11:56.635Z,7.81
2023-04-08T04:14:24.505Z,7.72
2023-04-08T04:16:53.758Z,7.81
2023-04-08T04:19:21.814Z,7.79
2023-04-08T04:21:49.725Z,7.80
2023-04-08T04:24:17.649Z,7.85
2023-04-08T04:26:45.547Z,7.75
2023-04-08T04:29:13.440Z,7.77
2023-04-08T04:31:41.435Z,7.67
2023-04-08T04:34:10.757Z,7.63
2023-04-08T04:36:38.639Z,7.62
2023-04-08T04:39:06.554Z,7.64
2023-04-08T04:41:38.855Z,7.72
2023-04-08T04:44:07.112Z,7.70
2023-04-08T04:46:35.153Z,7.56
2023-04-08T04:49:03.120Z,7.54
2023-04-08T04:51:34.185Z,7.55
2023-04-08T04:54:02.109Z,7.63
2023-04-08T04:56:30.022Z,7.68
2023-04-08T04:58:57.948Z,7.58
2023-04-08T05:01:26.182Z,7.60
2023-04-08T05:03:54.135Z,7.65
2023-04-08T05:06:22.068Z,7.58
2023-04-08T05:08:52.011Z,7.55
2023-04-08T05:11:21.811Z,7.57
2023-04-08T05:13:49.898Z,7.44
2023-04-08T05:16:17.944Z,7.58
2023-04-08T05:18:45.953Z,7.60
2023-04-08T05:21:13.869Z,7.56
2023-04-08T05:23:41.753Z,7.68
2023-04-08T05:26:11.415Z,7.68
2023-04-08T05:28:39.308Z,7.68
2023-04-08T05:31:07.299Z,7.58
2023-04-08T05:33:35.232Z,7.56
2023-04-08T05:36:03.236Z,7.50
2023-04-08T05:38:31.139Z,7.47
2023-04-08T05:40:59.086Z,7.38
2023-04-08T05:43:28.367Z,7.46
2023-04-08T05:45:56.272Z,7.47
2023-04-08T05:48:24.237Z,7.51
2023-04-08T05:50:52.202Z,7.40
2023-04-08T05:53:20.093Z,7.47
2023-04-08T05:55:47.989Z,7.44
2023-04-08T05:58:16.087Z,7.56
2023-04-08T06:00:45.383Z,7.48
2023-04-08T06:03:13.542Z,7.58
2023-04-08T06:05:41.806Z,7.55
2023-04-08T06:08:09.732Z,7.61
2023-04-08T06:10:37.636Z,7.52
2023-04-08T06:13:05.566Z,7.64
2023-04-08T06:15:33.648Z,7.49
2023-04-08T06:18:03.053Z,7.38
2023-04-08T06:20:31.364Z,7.47
2023-04-08T06:22:59.252Z,7.40
2023-04-08T06:25:27.371Z,7.49
2023-04-08T06:27:55.275Z,7.56
2023-04-08T06:30:23.432Z,7.55
2023-04-08T06:32:51.430Z,7.58
2023-04-08T06:35:20.919Z,7.57
2023-04-08T06:37:48.804Z,7.54
2023-04-08T06:40:16.730Z,7.61
2023-04-08T06:42:44.624Z,7.58
2023-04-08T06:45:12.786Z,7.57
2023-04-08T06:47:40.742Z,7.59
2023-04-08T06:50:09.392Z,7.53
2023-04-08T06:52:38.696Z,7.47
2023-04-08T06:55:07.417Z,7.51
2023-04-08T06:57:35.359Z,7.56
2023-04-08T07:00:03.464Z,7.61
2023-04-08T07:02:31.459Z,7.61
2023-04-08T07:04:59.642Z,7.60
2023-04-08T07:07:27.579Z,7.55
2023-04-08T07:09:57.000Z,7.67
2023-04-08T07:12:25.016Z,7.63
2023-04-08T07:14:53.188Z,7.63
2023-04-08T07:17:21.135Z,7.74
2023-04-08T07:19:49.642Z,7.70
2023-04-08T07:22:17.542Z,7.71
2023-04-08T07:24:49.773Z,7.80
2023-04-08T07:27:19.151Z,7.77
2023-04-08T07:29:47.067Z,7.75
2023-04-08T07:32:15.091Z,7.71
2023-04-08T07:34:42.967Z,7.70
2023-04-08T07:37:10.866Z,7.78
2023-04-08T07:39:38.769Z,7.80
2023-04-08T07:42:07.150Z,7.78
2023-04-08T07:44:36.484Z,7.79
2023-04-08T07:47:04.414Z,7.76
2023-04-08T07:49:32.320Z,7.86
2023-04-08T07:52:00.220Z,7.93
2023-04-08T07:54:28.127Z,7.88
2023-04-08T07:56:56.995Z,7.92
2023-04-08T07:59:24.985Z,7.92
2023-04-08T08:01:54.566Z,7.98
2023-04-08T08:04:25.799Z,7.97
2023-04-08T08:06:53.873Z,8.01
2023-04-08T08:09:21.808Z,7.99
2023-04-08T08:11:49.672Z,8.03
2023-04-08T08:14:17.600Z,8.17
2023-04-08T08:16:45.751Z,8.17
2023-04-08T08:19:15.032Z,8.16
2023-04-08T08:21:42.953Z,8.15
2023-04-08T08:24:10.854Z,8.22
2023-04-08T08:26:39.033Z,8.23
2023-04-08T08:29:08.619Z,8.22
2023-04-08T08:31:36.919Z,8.12
2023-04-08T08:34:04.882Z,8.23
2023-04-08T08:36:34.829Z,8.25
2023-04-08T08:39:03.045Z,8.24
2023-04-08T08:41:35.261Z,8.23
2023-04-08T08:44:03.872Z,8.22
2023-04-08T08:46:31.827Z,8.29
2023-04-08T08:48:59.780Z,8.35
2023-04-08T08:51:29.076Z,8.34
2023-04-08T08:53:58.359Z,8.43
2023-04-08T08:56:26.459Z,8.38
2023-04-08T08:58:54.803Z,8.36
2023-04-08T09:01:33.184Z,8.33
2023-04-08T09:04:12.701Z,8.45
2023-04-08T09:06:41.293Z,8.36
2023-04-08T09:09:13.449Z,8.38
2023-04-08T09:11:42.592Z,8.31
2023-04-08T09:14:20.840Z,8.40
2023-04-08T09:16:48.863Z,8.41
2023-04-08T09:19:16.834Z,8.47
2023-04-08T09:21:45.028Z,8.51
2023-04-08T09:24:29.993Z,8.52
2023-04-08T09:26:57.917Z,8.60
2023-04-08T09:29:27.614Z,8.64
2023-04-08T09:31:57.730Z,8.70
2023-04-08T09:34:27.554Z,8.77
2023-04-08T09:36:56.711Z,8.71
2023-04-08T09:39:26.443Z,8.74
2023-04-08T09:41:54.976Z,8.72
2023-04-08T09:44:23.626Z,8.89
2023-04-08T09:46:58.108Z,8.82
2023-04-08T09:49:28.316Z,8.91
2023-04-08T09:52:01.068Z,8.98
2023-04-08T09:54:36.400Z,8.92
2023-04-08T09:57:11.610Z,9.03
2023-04-08T09:59:40.410Z,9.05
2023-04-08T10:02:11.428Z,9.17
2023-04-08T10:04:41.096Z,9.18
2023-04-08T10:07:09.957Z,9.18
2023-04-08T10:09:41.540Z,9.28
2023-04-08T10:12:09.489Z,9.32
2023-04-08T10:14:37.372Z,9.32
2023-04-08T10:17:36.885Z,9.33
2023-04-08T10:20:05.514Z,9.38
2023-04-08T10:22:49.853Z,9.40
2023-04-08T10:25:32.597Z,9.49
2023-04-08T10:28:01.629Z,9.48
2023-04-08T10:30:43.088Z,9.49
2023-04-08T10:33:12.411Z,9.53
2023-04-08T10:35:43.034Z,9.52
2023-04-08T10:38:11.754Z,9.58
2023-04-08T10:40:42.841Z,9.52
2023-04-08T10:43:11.527Z,9.57
2023-04-08T10:45:39.767Z,9.57
2023-04-08T10:48:14.968Z,9.62
2023-04-08T10:50:43.069Z,9.62
2023-04-08T10:53:11.767Z,9.80
2023-04-08T10:55:41.074Z,9.84
2023-04-08T10:58:09.765Z,9.86
2023-04-08T11:00:38.824Z,9.81
2023-04-08T11:03:08.750Z,9.81
2023-04-08T11:05:38.774Z,9.90
2023-04-08T11:08:07.055Z,9.91
2023-04-08T11:10:40.004Z,9.91
2023-04-08T11:13:09.902Z,9.75
2023-04-08T11:15:38.408Z,9.95
2023-04-08T11:18:06.883Z,9.98
2023-04-08T11:20:37.265Z,9.95
2023-04-08T11:23:05.287Z,10.00
2023-04-08T11:25:33.305Z,9.95
2023-04-08T11:28:03.404Z,10.03
2023-04-08T11:30:31.783Z,10.10
2023-04-08T11:32:59.797Z,10.21
2023-04-08T11:35:30.268Z,10.32
2023-04-08T11:37:58.725Z,10.38
2023-04-08T11:40:27.467Z,10.08
2023-04-08T11:42:55.388Z,10.22
2023-04-08T11:45:24.764Z,10.24
2023-04-08T11:47:53.045Z,10.26
2023-04-08T11:50:24.775Z,10.27
2023-04-08T11:52:53.275Z,10.17
2023-04-08T11:55:25.545Z,10.27
2023-04-08T11:57:53.860Z,10.28
2023-04-08T12:00:22.518Z,10.33
2023-04-08T12:02:52.697Z,10.41
2023-04-08T12:05:21.413Z,10.32
2023-04-08T12:07:49.319Z,10.25
2023-04-08T12:10:17.230Z,10.29
2023-04-08T12:12:45.144Z,10.23
2023-04-08T12:15:13.440Z,10.34
2023-04-08T12:17:41.458Z,10.32
2023-04-08T12:20:12.050Z,10.28
2023-04-08T12:22:40.501Z,10.39
2023-04-08T12:25:08.857Z,10.40
2023-04-08T12:27:36.739Z,10.35
2023-04-08T12:30:05.379Z,10.33
2023-04-08T12:32:33.641Z,10.43
2023-04-08T12:35:01.622Z,10.49
2023-04-08T12:37:30.951Z,10.51
2023-04-08T12:39:58.882Z,10.48
2023-04-08T12:42:28.029Z,10.53
2023-04-08T12:44:56.423Z,10.47
2023-04-08T12:47:25.655Z,10.43
2023-04-08T12:49:54.298Z,10.39
2023-04-08T12:52:23.057Z,10.46
2023-04-08T12:54:52.356Z,10.29
2023-04-08T12:57:20.250Z,10.39
2023-04-08T12:59:48.938Z,10.46
2023-04-08T13:02:16.884Z,10.48
2023-04-08T13:04:44.927Z,10.34
2023-04-08T13:07:12.840Z,10.38
2023-04-08T13:09:40.729Z,10.39
2023-04-08T13:12:10.719Z,10.35
2023-04-08T13:14:38.598Z,10.22
2023-04-08T13:17:06.605Z,10.33
2023-04-08T13:19:35.063Z,10.30
2023-04-08T13:22:03.121Z,10.39
2023-04-08T13:24:31.226Z,10.18
2023-04-08T13:26:59.321Z,10.28
2023-04-08T13:29:28.609Z,10.22
2023-04-08T13:31:56.553Z,10.09
2023-04-08T13:34:24.551Z,10.30
2023-04-08T13:36:52.534Z,10.43
2023-04-08T13:39:20.496Z,10.46
2023-04-08T13:41:49.102Z,10.42
2023-04-08T13:44:17.658Z,10.40
2023-04-08T13:46:46.935Z,10.39
2023-04-08T13:49:16.142Z,10.38
2023-04-08T13:51:44.049Z,10.38
2023-04-08T13:54:11.958Z,10.37
2023-04-08T13:56:39.887Z,10.45
2023-04-08T13:59:07.825Z,10.35
2023-04-08T14:01:35.842Z,10.44
2023-04-08T14:04:05.290Z,10.46
2023-04-08T14:06:33.767Z,10.41
2023-04-08T14:09:01.645Z,10.35
2023-04-08T14:11:29.519Z,10.33
2023-04-08T14:13:57.521Z,10.39
2023-04-08T14:16:25.641Z,10.36
2023-04-08T14:18:53.891Z,10.33
2023-04-08T14:21:23.348Z,10.29
2023-04-08T14:23:51.217Z,10.28
2023-04-08T14:26:19.094Z,10.36
2023-04-08T14:28:47.647Z,10.37
2023-04-08T14:31:15.847Z,10.39
2023-04-08T14:33:44.115Z,10.33
2023-04-08T14:36:12.272Z,10.35
2023-04-08T14:38:41.668Z,10.33
2023-04-08T14:41:09.690Z,10.26
2023-04-08T14:43:37.592Z,10.32
2023-04-08T14:46:05.666Z,10.36
2023-04-08T14:48:33.617Z,10.31
2023-04-08T14:51:01.723Z,10.19
2023-04-08T14:53:29.632Z,10.21
2023-04-08T14:55:58.890Z,10.24
2023-04-08T14:58:26.892Z,10.19
2023-04-08T15:00:55.698Z,10.20
2023-04-08T15:03:23.860Z,10.15
2023-04-08T15:05:51.909Z,10.21
2023-04-08T15:08:19.980Z,10.26
2023-04-08T15:10:47.889Z,10.23
2023-04-08T15:13:17.395Z,10.18
2023-04-08T15:15:45.559Z,10.21
2023-04-08T15:18:13.479Z,10.17
2023-04-08T15:20:41.536Z,9.99
2023-04-08T15:23:09.495Z,10.06
2023-04-08T15:25:37.400Z,10.12
2023-04-08T15:28:05.318Z,10.12
2023-04-08T15:30:36.216Z,10.07
2023-04-08T15:33:04.735Z,10.03
2023-04-08T15:35:33.014Z,10.04
2023-04-08T15:38:01.825Z,10.04
2023-04-08T15:40:32.208Z,10.11
2023-04-08T15:43:00.148Z,10.04
2023-04-08T15:45:28.578Z,10.10
2023-04-08T15:47:58.018Z,10.12
2023-04-08T15:50:29.838Z,10.10
2023-04-08T15:52:58.010Z,10.01
2023-04-08T15:55:25.972Z,9.95
2023-04-08T15:57:56.685Z,10.01
2023-04-08T16:00:24.877Z,9.93
2023-04-08T16:02:53.127Z,9.98
2023-04-08T16:05:22.674Z,9.83
2023-04-08T16:07:50.583Z,9.84
2023-04-08T16:10:18.698Z,9.82
2023-04-08T16:12:47.386Z,9.93
2023-04-08T16:15:15.391Z,9.92
2023-04-08T16:17:43.354Z,9.90
2023-04-08T16:20:12.322Z,9.89
2023-04-08T16:22:41.628Z,9.77
2023-04-08T16:25:10.511Z,9.75
2023-04-08T16:27:39.165Z,9.64
2023-04-08T16:30:08.313Z,9.76
2023-04-08T16:32:36.882Z,9.82
2023-04-08T16:35:05.133Z,9.78
2023-04-08T16:37:33.673Z,9.72
2023-04-08T16:40:04.409Z,9.66
2023-04-08T16:42:32.891Z,9.65
2023-04-08T16:45:01.290Z,9.53
2023-04-08T16:47:29.242Z,9.49
2023-04-08T16:49:57.170Z,9.50
2023-04-08T16:52:25.045Z,9.49
2023-04-08T16:54:53.517Z,9.38
2023-04-08T16:57:23.536Z,9.47
2023-04-08T16:59:51.568Z,9.51
2023-04-08T17:02:19.615Z,9.54
2023-04-08T17:04:50.134Z,9.52
2023-04-08T17:07:18.170Z,9.44
2023-04-08T17:09:51.372Z,9.45
2023-04-08T17:12:19.351Z,9.37
2023-04-08T17:14:49.332Z,9.35
2023-04-08T17:17:17.332Z,9.36
2023-04-08T17:19:45.240Z,9.29
2023-04-08T17:22:13.144Z,9.32
2023-04-08T17:24:41.062Z,9.31
2023-04-08T17:27:09.181Z,9.31
2023-04-08T17:29:37.260Z,9.33
2023-04-08T17:32:06.821Z,9.34
2023-04-08T17:34:34.713Z,9.25
2023-04-08T17:37:02.782Z,9.22
2023-04-08T17:39:31.610Z,9.22
2023-04-08T17:41:59.643Z,9.19
2023-04-08T17:44:29.746Z,9.19
2023-04-08T17:46:57.897Z,9.12
2023-04-08T17:49:28.991Z,9.15
2023-04-08T17:51:57.732Z,9.18
2023-04-08T17:54:25.648Z,9.05
2023-04-08T17:56:53.792Z,9.09
2023-04-08T17:59:21.835Z,9.14
2023-04-08T18:01:49.856Z,9.16
2023-04-08T18:04:17.997Z,9.16
2023-04-08T18:06:47.360Z,9.11
2023-04-08T18:09:15.323Z,9.10
2023-04-08T18:11:43.313Z,9.10
2023-04-08T18:14:12.557Z,9.08
2023-04-08T18:16:40.548Z,9.00
2023-04-08T18:19:08.716Z,9.02
2023-04-08T18:21:36.741Z,8.96
2023-04-08T18:24:08.672Z,9.00
2023-04-08T18:26:37.138Z,8.94
2023-04-08T18:29:05.052Z,8.92
2023-04-08T18:31:32.950Z,8.94
2023-04-08T18:34:00.866Z,8.96
2023-04-08T18:36:28.770Z,8.96
2023-04-08T18:38:57.257Z,8.94
2023-04-08T18:41:27.947Z,8.89
2023-04-08T18:43:56.604Z,8.92
2023-04-08T18:46:24.580Z,8.90
2023-04-08T18:48:52.489Z,8.80
2023-04-08T18:51:20.384Z,8.82
2023-04-08T18:53:48.381Z,8.85
2023-04-08T18:56:16.804Z,8.78
2023-04-08T18:58:47.102Z,8.83
2023-04-08T19:01:16.273Z,8.76
2023-04-08T19:03:44.542Z,8.72
2023-04-08T19:06:13.654Z,8.68
2023-04-08T19:08:41.570Z,8.65
2023-04-08T19:11:09.509Z,8.64
2023-04-08T19:13:37.647Z,8.64
2023-04-08T19:16:08.158Z,8.67
2023-04-08T19:18:36.143Z,8.71
2023-04-08T19:21:04.050Z,8.71
2023-04-08T19:23:32.132Z,8.73
2023-04-08T19:26:00.126Z,8.75
2023-04-08T19:28:28.015Z,8.75
2023-04-08T19:30:55.967Z,8.75
2023-04-08T19:33:27.502Z,8.73
2023-04-08T19:35:55.757Z,8.71
2023-04-08T19:38:23.959Z,8.67
2023-04-08T19:40:51.868Z,8.63
2023-04-08T19:43:19.758Z,8.58
2023-04-08T19:45:47.852Z,8.54
2023-04-08T19:48:15.761Z,8.61
2023-04-08T19:50:45.044Z,8.64
2023-04-08T19:53:12.928Z,8.61
2023-04-08T19:55:40.885Z,8.61
2023-04-08T19:58:08.794Z,8.60
2023-04-08T20:00:37.425Z,8.61
2023-04-08T20:03:06.274Z,8.57
2023-04-08T20:05:34.474Z,8.57
2023-04-08T20:08:03.829Z,8.58
2023-04-08T20:10:31.766Z,8.55
2023-04-08T20:12:59.717Z,8.55
2023-04-08T20:15:28.144Z,8.51
2023-04-08T20:17:56.565Z,8.51
2023-04-08T20:20:26.651Z,8.50
2023-04-08T20:22:55.617Z,8.47
2023-04-08T20:25:25.042Z,8.47
2023-04-08T20:27:53.149Z,8.47
2023-04-08T20:30:21.149Z,8.51
2023-04-08T20:32:49.191Z,8.53
2023-04-08T20:35:17.487Z,8.57
2023-04-08T20:37:46.291Z,8.61
2023-04-08T20:40:16.388Z,8.61
2023-04-08T20:42:47.047Z,8.48
2023-04-08T20:45:14.940Z,8.53
2023-04-08T20:47:44.625Z,8.60
2023-04-08T20:50:12.977Z,8.62
2023-04-08T20:52:40.931Z,8.64
2023-04-08T20:55:09.763Z,8.65
2023-04-08T20:57:37.649Z,8.70
2023-04-08T21:00:08.230Z,8.72
2023-04-08T21:02:36.457Z,8.72
2023-04-08T21:05:04.930Z,8.76
2023-04-08T21:07:32.828Z,8.82
2023-04-08T21:10:00.999Z,8.80
2023-04-08T21:12:28.938Z,8.85
2023-04-08T21:14:56.811Z,8.86
2023-04-08T21:19:54.060Z,8.89
2023-04-08T21:22:22.015Z,8.76
2023-04-08T21:24:49.924Z,8.77
2023-04-08T21:27:17.846Z,8.83
2023-04-08T21:29:45.753Z,8.86
2023-04-08T21:32:13.699Z,8.91
2023-04-08T21:34:43.406Z,8.86
2023-04-08T21:37:11.325Z,8.92
2023-04-08T21:39:39.236Z,8.93
2023-04-08T21:42:07.190Z,8.89
2023-04-08T21:44:35.094Z,8.92
2023-04-08T21:47:03.028Z,8.96
2023-04-08T21:49:31.621Z,8.99
2023-04-08T21:52:00.940Z,8.91
2023-04-08T21:54:28.811Z,8.90
2023-04-08T21:56:56.947Z,8.91
2023-04-08T21:59:25.002Z,8.92
2023-04-08T22:01:52.962Z,8.91
2023-04-08T22:04:21.081Z,8.91
2023-04-08T22:06:49.867Z,8.88
2023-04-08T22:09:19.481Z,8.83
2023-04-08T22:11:47.385Z,8.83
2023-04-08T22:14:15.577Z,8.83
2023-04-08T22:16:43.606Z,8.83
2023-04-08T22:19:11.776Z,8.83
2023-04-08T22:21:39.666Z,8.79
2023-04-08T22:24:07.734Z,8.72
2023-04-08T22:26:37.063Z,8.67
2023-04-08T22:29:05.036Z,8.62
2023-04-08T22:31:32.929Z,8.54
2023-04-08T22:34:00.818Z,8.61
2023-04-08T22:36:28.731Z,8.64
2023-04-08T22:38:56.611Z,8.59
2023-04-08T22:41:24.958Z,8.53
2023-04-08T22:43:54.210Z,8.58
2023-04-08T22:46:22.161Z,8.63
2023-04-08T22:48:50.462Z,8.68
2023-04-08T22:51:18.710Z,8.68
2023-04-08T22:53:46.722Z,8.68
2023-04-08T22:56:14.940Z,8.72
2023-04-08T22:58:42.926Z,8.71
2023-04-08T23:01:17.581Z,8.67
2023-04-08T23:03:45.629Z,8.64
2023-04-08T23:06:13.580Z,8.45
2023-04-08T23:08:41.584Z,8.48
2023-04-08T23:11:09.500Z,8.40
2023-04-08T23:13:37.893Z,8.32
2023-04-08T23:16:06.401Z,8.42
2023-04-08T23:18:36.003Z,8.49
2023-04-08T23:21:03.969Z,8.54
2023-04-08T23:23:34.668Z,8.59
2023-04-08T23:26:02.925Z,8.35
2023-04-08T23:28:31.094Z,8.28
2023-04-08T23:31:02.539Z,8.25
2023-04-08T23:33:31.329Z,8.22
2023-04-08T23:36:01.018Z,8.39
2023-04-08T23:38:28.987Z,8.41
2023-04-08T23:40:56.992Z,8.44
2023-04-08T23:43:24.896Z,8.51
2023-04-08T23:45:53.340Z,8.55
2023-04-08T23:48:21.218Z,8.54
2023-04-08T23:50:51.701Z,8.58
2023-04-08T23:53:21.300Z,8.56
2023-04-08T23:55:49.478Z,8.61
2023-04-08T23:58:17.421Z,8.53
